METAR Reports for Virginia

 

KIAD - Wash DC/Dulles, Virginia, USA
Distance from station: NNW 8mi, 13km
Updated: Tue, 19-Sep-2017 11:52am EDT
Mostly cloudy
Mostly cloudy
 Wind from N
Wind: N 10 mph , 17 km/h
Temperature: 75°F , 24°C
Dew Point: 66°F , 19°C
Humidity: 74%
Barometer: 30.02 inHg , 1016.6 hPa
Clouds: Mostly cloudy
Visibility: 10 miles , 16 km
Cloud details: Mostly cloudy 2400 ft
2017/09/19 15:52 KIAD 191552Z 36009KT 10SM BKN024 24/19 A3002 RMK AO2 SLP162 T02390189
KHEF - Manassas Muni, Virginia, USA
Distance from station: SW 9mi, 14km
Updated: Tue, 19-Sep-2017 12:52pm EDT
Partly cloudy
Partly cloudy
 Wind from N
Wind: N 14 mph , 22 km/h, Gust: 21 mph , 33 km/h
Temperature: 79°F , 26°C
Dew Point: 66°F , 19°C
Humidity: 65%
Barometer: 29.99 inHg , 1015.6 hPa
Clouds: Partly cloudy
Visibility: 10 miles , 16 km
Cloud details: Partly cloudy 2600 ft
2017/09/19 16:52 KHEF 191652Z AUTO 36012G18KT 10SM SCT026 26/19 A2999 RMK AO2 PNO $
KDAA - Fort Belvoir/Dav, Virginia, USA
Distance from station: ESE 15mi, 25km
Updated: Tue, 19-Sep-2017 12:43pm EDT
Partly cloudy
Partly cloudy
 Wind from NW
Wind: NW 13 mph , 20 km/h
Temperature: 77°F , 25°C
Dew Point: 64°F , 18°C
Humidity: 65%
Barometer: 29.97 inHg , 1014.9 hPa
Clouds: Partly cloudy
Visibility: 10 miles , 16 km
Cloud details: Partly cloudy 2700 ft
2017/09/19 16:43 KDAA 191643Z AUTO 32011KT 10SM SCT027 25/18 A2997 RMK AO2 SLP152
 
KJYO - Leesburg/Godfrey, Virginia, USA
Distance from station: NNW 19mi, 30km
Updated: Tue, 19-Sep-2017 12:35pm EDT
Overcast
Overcast
 Wind from N
Wind: N 8 mph , 13 km/h, Gust: 16 mph , 26 km/h
Temperature: 77°F , 25°C
Dew Point: 68°F , 20°C
Humidity: 74%
Barometer: 30.02 inHg , 1016.6 hPa
Clouds: Overcast
Visibility: 10 miles , 16 km
Cloud details: Overcast 2400 ft
2017/09/19 16:35 KJYO 191635Z AUTO 36007G14KT 10SM OVC024 25/20 A3002 RMK AO2
KDCA - Washington/Natl, Washington D.C./Arlington, VA, USA
Distance from station: E 21mi, 34km
Updated: Tue, 19-Sep-2017 12:52pm EDT
Mostly cloudy
Mostly cloudy
 Wind from NNW
Wind: NNW 14 mph , 22 km/h
Temperature: 81°F , 27°C
Heat Index: 84°F , 29°C
Dew Point: 68°F , 20°C
Humidity: 66%
Barometer: 29.98 inHg , 1015.2 hPa
Clouds: Mostly cloudy
Visibility: 10 miles , 16 km
Cloud details: Mostly cloudy 3200 ft
2017/09/19 16:52 KDCA 191652Z 33012KT 10SM BKN032 27/20 A2998 RMK AO2 SLP150 T02670200
KHWY - Warrenton, Virginia, USA
Distance from station: SW 23mi, 37km
Updated: Tue, 19-Sep-2017 12:35pm EDT
Partly cloudy
Partly cloudy
 Wind from N
Wind: N 10 mph , 17 km/h
Temperature: 79°F , 26°C
Dew Point: 63°F , 17°C
Humidity: 58%
Barometer: 30.00 inHg , 1015.9 hPa
Clouds: Partly cloudy
Visibility: 10 miles , 16 km
Cloud details: Partly cloudy 2200 ft
2017/09/19 16:35 KHWY 191635Z AUTO 01009KT 10SM SCT022 26/17 A3000 RMK AO2 T02570170
 
KNYG - Quantico Mcaf, Virginia, USA
Distance from station: SSE 23mi, 37km
Updated: Tue, 19-Sep-2017 11:56am EDT
Mostly cloudy
Mostly cloudy
 Wind from N
Wind: N 13 mph , 20 km/h
Temperature: 77°F , 25°C
Dew Point: 66°F , 19°C
Humidity: 69%
Clouds: Mostly cloudy
Visibility: 10 miles , 16 km
Cloud details: Mostly cloudy 2400 ft
2017/09/19 15:56 KNYG 191556Z 01011KT 10SM BKN024 25/19 A30x RMK AO2 SLP161 T02500194
KRMN - Stafford Regnl, Virginia, USA
Distance from station: S 29mi, 47km
Updated: Tue, 19-Sep-2017 12:35pm EDT
Partly cloudy
Partly cloudy
 Wind from NNW
Wind: NNW 15 mph , 24 km/h, Gust: 20 mph , 31 km/h
Temperature: 77°F , 25°C
Dew Point: 66°F , 19°C
Humidity: 69%
Barometer: 30.02 inHg , 1016.6 hPa
Clouds: Partly cloudy
Visibility: 10 miles , 16 km
Cloud details: Partly cloudy 2300 ft
2017/09/19 16:35 KRMN 191635Z AUTO 33013G17KT 10SM SCT023 25/19 A3002 RMK AO2 T02490190
KBCB - Blacksburg, Virginia, USA
Distance from station: SW 191mi, 317km
Updated: Tue, 19-Sep-2017 12:35pm EDT
Overcast
Overcast
 Wind from calm
Wind: Calm
Temperature: 75°F , 24°C
Dew Point: 63°F , 17°C
Humidity: 65%
Barometer: 30.12 inHg , 1020 hPa
Clouds: Overcast
Visibility: 10 miles , 16 km
Cloud details: Overcast 2300 ft
2017/09/19 16:35 KBCB 191635Z AUTO 00000KT 10SM OVC023 24/17 A3012 RMK AO2 T02360172
 
KCJR - Culpeper, Virginia, USA
Distance from station: SW 31mi, 50km
Updated: Tue, 19-Sep-2017 12:35pm EDT
Partly cloudy
Partly cloudy
 Wind from NNE
Wind: NNE 8 mph , 13 km/h
Temperature: 79°F , 26°C
Dew Point: 66°F , 19°C
Humidity: 65%
Barometer: 30.01 inHg , 1016.3 hPa
Clouds: Partly cloudy
Visibility: 10 miles , 16 km
Cloud details: Partly cloudy 2700 ft
2017/09/19 16:35 KCJR 191635Z AUTO 03007KT 10SM SCT027 26/19 A3001 RMK AO2 T02610194
KEZF - Fredericksb/Shan, Virginia, USA
Distance from station: S 38mi, 61km
Updated: Tue, 19-Sep-2017 12:35pm EDT
Partly cloudy
Partly cloudy
 Wind from NW
Wind: NW 13 mph , 20 km/h, Gust: 18 mph , 30 km/h
Temperature: 77°F , 25°C
Dew Point: 68°F , 20°C
Humidity: 74%
Barometer: 29.97 inHg , 1014.9 hPa
Clouds: Partly cloudy
Visibility: 10 miles , 16 km
Cloud details: Partly cloudy 2200 ft
Partly cloudy 11000 ft
2017/09/19 16:35 KEZF 191635Z AUTO 32011G16KT 10SM SCT022 SCT110 25/20 A2997 RMK AO2 T02500197
KCHO - Charlottesville, Virginia, USA
Distance from station: SW 73mi, 118km
Updated: Tue, 19-Sep-2017 12:53pm EDT
Clear
Clear
 Wind from varies
Wind: varies 3 mph , 6 km/h
Temperature: 82°F , 28°C
Heat Index: 84°F , 29°C
Dew Point: 64°F , 18°C
Humidity: 55%
Barometer: 29.99 inHg , 1015.6 hPa
Clouds: Clear
Visibility: 10 miles , 16 km
2017/09/19 16:53 KCHO 191653Z VRB03KT 10SM CLR 28/18 A2999 RMK AO2 SLP149 T02780178
 
KOKV - Winchester Rgnl, Virginia, USA
Distance from station: WNW 45mi, 72km
Updated: Tue, 19-Sep-2017 12:35pm EDT
Mostly cloudy
Mostly cloudy
 Wind from N
Wind: N 3 mph , 6 km/h
Temperature: 73°F , 23°C
Dew Point: 63°F , 17°C
Humidity: 69%
Barometer: 30.03 inHg , 1016.9 hPa
Clouds: Mostly cloudy
Visibility: 10 miles , 16 km
Cloud details: Mostly cloudy 2400 ft
2017/09/19 16:35 KOKV 191635Z AUTO 01003KT 10SM BKN024 23/17 A3003 RMK AO2
KSHD - Staunton/Shenand, Virginia, USA
Distance from station: WSW 89mi, 143km
Updated: Tue, 19-Sep-2017 12:35pm EDT
Partly cloudy
Partly cloudy
 Wind from calm
Wind: Calm
Temperature: 73°F , 23°C
Dew Point: 63°F , 17°C
Humidity: 69%
Barometer: 30.07 inHg , 1018.3 hPa
Clouds: Partly cloudy
Visibility: 10 miles , 16 km
Cloud details: Partly cloudy 2500 ft
2017/09/19 16:35 KSHD 191635Z AUTO 00000KT 10SM SCT025 23/17 A3007 RMK AO2 T02340167
KRIC - Richmond, Virginia, USA
Distance from station: S 90mi, 145km
Updated: Tue, 19-Sep-2017 12:34pm EDT
Partly cloudy
Partly cloudy
 Wind from NNW
Wind: NNW 15 mph , 24 km/h, Gust: 21 mph , 33 km/h
Temperature: 79°F , 26°C
Dew Point: 66°F , 19°C
Humidity: 65%
Barometer: 29.95 inHg , 1014.2 hPa
Clouds: Partly cloudy
Visibility: 10 miles , 16 km
Cloud details: Partly cloudy 2700 ft
Partly cloudy 15000 ft
2017/09/19 16:34 KRIC 191634Z 34013G18KT 10SM SCT027 SCT150 26/19 A2995 RMK AO2 T02560189
 
KOMH - Orange, Virginia, USA
Distance from station: SW 52mi, 84km
Updated: Tue, 19-Sep-2017 12:35pm EDT
Clear
Clear
 Wind from calm
Wind: Calm
Temperature: 77°F , 25°C
Dew Point: 64°F , 18°C
Humidity: 65%
Barometer: 29.99 inHg , 1015.6 hPa
Clouds: Clear
Visibility: 10 miles , 16 km
2017/09/19 16:35 KOMH 191635Z AUTO 00000KT 10SM CLR 25/18 A2999 RMK AO2
KPHF - Newport News, Virginia, USA
Distance from station: SSE 127mi, 204km
Updated: Tue, 19-Sep-2017 11:54am EDT
Overcast
Overcast
 Wind from NNW
Wind: NNW 15 mph , 24 km/h, Gust: 24 mph , 39 km/h
Temperature: 75°F , 24°C
Dew Point: 66°F , 19°C
Humidity: 74%
Barometer: 29.90 inHg , 1012.5 hPa
Clouds: Overcast
Visibility: 10 miles , 16 km
Cloud details: Partly cloudy 2700 ft
Mostly cloudy 3300 ft
Overcast 4000 ft
2017/09/19 15:54 KPHF 191554Z 34013G21KT 10SM SCT027 BKN033 OVC040 24/19 A2990 RMK AO2 RAE17 SLP124 P0000 T02440194
KLYH - Lynchburg, Virginia, USA
Distance from station: SW 142mi, 228km
Updated: Tue, 19-Sep-2017 11:54am EDT
Few Clouds
Few Clouds
 Wind from varies
Wind: varies 3 mph , 6 km/h
Temperature: 77°F , 25°C
Dew Point: 61°F , 16°C
Humidity: 57%
Barometer: 30.04 inHg , 1017.3 hPa
Clouds: Few Clouds
Visibility: 10 miles , 16 km
Cloud details: Few Clouds 2400 ft
2017/09/19 15:54 KLYH 191554Z VRB03KT 10SM FEW024 25/16 A3004 RMK AO2 SLP164 T02500161
 
KLUA - Luray, Virginia, USA
Distance from station: W 59mi, 95km
Updated: Tue, 19-Sep-2017 12:35pm EDT
Mostly cloudy
Mostly cloudy
 Wind from calm
Wind: Calm
Temperature: 73°F , 23°C
Dew Point: 63°F , 17°C
Humidity: 69%
Barometer: 30.04 inHg , 1017.3 hPa
Clouds: Mostly cloudy
Visibility: 10 miles , 16 km
Cloud details: Mostly cloudy 2400 ft
2017/09/19 16:35 KLUA 191635Z AUTO 00000KT 10SM BKN024 23/17 A3004 RMK AO2
KLKU - Louisa, Virginia, USA
Distance from station: SSW 63mi, 101km
Updated: Tue, 19-Sep-2017 12:35pm EDT
Partly cloudy
Partly cloudy
 Wind from NNE
Wind: NNE 8 mph , 13 km/h
Temperature: 77°F , 25°C
Dew Point: 66°F , 19°C
Humidity: 69%
Barometer: 29.99 inHg , 1015.6 hPa
Clouds: Partly cloudy
Visibility: 10 miles , 16 km
Cloud details: Partly cloudy 2500 ft
2017/09/19 16:35 KLKU 191635Z AUTO 02007KT 10SM SCT025 25/19 A2999 RMK AO2
KXSA - Tappahannock, Virginia, USA
Distance from station: SSE 72mi, 115km
Updated: Tue, 19-Sep-2017 12:35pm EDT
Partly cloudy
Partly cloudy
 Wind from NW
Wind: NW 10 mph , 17 km/h, Gust: 22 mph , 35 km/h
Temperature: 81°F , 27°C
Heat Index: 83°F , 28°C
Dew Point: 64°F , 18°C
Humidity: 58%
Barometer: 29.95 inHg , 1014.2 hPa
Clouds: Partly cloudy
Visibility: 10 miles , 16 km
Cloud details: Partly cloudy 2200 ft
Partly cloudy 2900 ft
Partly cloudy 3900 ft
2017/09/19 16:35 KXSA 191635Z AUTO 31009G19KT 10SM SCT022 SCT029 SCT039 27/18 A2995 RMK AO2 T02690176
 
KOFP - Richmond/Hanover, Virginia, USA
Distance from station: S 77mi, 124km
Updated: Tue, 19-Sep-2017 12:45pm EDT
Mostly cloudy
Mostly cloudy
 
Barometer: 29.97 inHg , 1014.9 hPa
Clouds: Mostly cloudy
Cloud details: Mostly cloudy 2800 ft
2017/09/19 16:45 KOFP 191645Z AUTO BKN028 A2997 RMK AO2 PWINO PNO $
KVBW - BRIDGEWATER, VIRGINIA, USA
Distance from station: SW 89mi, 144km
Updated: Tue, 19-Sep-2017 12:35pm EDT
Partly cloudy
Partly cloudy
 Wind from NNW
Wind: NNW 9 mph , 15 km/h
Temperature: 73°F , 23°C
Dew Point: 63°F , 17°C
Humidity: 69%
Barometer: 30.04 inHg , 1017.3 hPa
Clouds: Partly cloudy
Visibility: 10 miles , 16 km
Cloud details: Partly cloudy 2800 ft
2017/09/19 16:35 KVBW 191635Z AUTO 34008KT 270V020 10SM SCT028 23/17 A3004 RMK AO2 T02320168
KFYJ - West Point, Virginia, USA
Distance from station: SSE 97mi, 156km
Updated: Tue, 19-Sep-2017 12:36pm EDT
Overcast
Overcast
 Wind from NW
Wind: NW 9 mph , 15 km/h
Temperature: 77°F , 25°C
Dew Point: 66°F , 19°C
Humidity: 69%
Barometer: 29.93 inHg , 1013.5 hPa
Clouds: Overcast
Visibility: 10 miles , 16 km
Cloud details: Partly cloudy 2700 ft
Mostly cloudy 3400 ft
Overcast 4200 ft
2017/09/19 16:36 KFYJ 191636Z AUTO 31008KT 10SM SCT027 BKN034 OVC042 25/19 A2993 RMK AO1
 
KFCI - Richmond/Chester, Virginia, USA
Distance from station: S 98mi, 158km
Updated: Thu, 14-Sep-2017 8:56am EDT
NOT Current
Overcast
Overcast
 Wind from SSW
Wind: SSW 5 mph , 7 km/h
Temperature: 70°F , 21°C
Dew Point: 68°F , 20°C
Humidity: 94%
Clouds: Overcast
Visibility: 10 miles , 16 km
Cloud details: Overcast 9000 ft
2017/09/14 12:56 KFCI 141256Z AUTO 20004KT 10SM OVC090 21/20 RMK AO2 SLPNO T02110200 $
KTGI - TANGIER ISLAND, VIRGINIA USA
Distance from station: 104mi, 168km
Updated: Tue, 19-Sep-2017 10:51am EDT
NOT Current
Overcast
Overcast
 Wind from N
Wind: N 21 mph , 33 km/h, Gust: 31 mph , 50 km/h
Temperature: 75°F , 24°C
Dew Point: 70°F , 21°C
Humidity: 83%
Barometer: 29.89 inHg , 1012.2 hPa
Clouds: Overcast
Visibility: 10 miles , 16 km
Cloud details: Partly cloudy 2200 ft
Mostly cloudy 3300 ft
Overcast 3800 ft
2017/09/19 14:51 KTGI 191451Z AUTO 35018G27KT 10SM SCT022 BKN033 OVC038 24/21 A2989 RMK AO1
KPTB - Petersburg, Virginia, USA
Distance from station: S 114mi, 184km
Updated: Tue, 19-Sep-2017 12:35pm EDT
Mostly cloudy
Mostly cloudy
 Wind from NNW
Wind: NNW 9 mph , 15 km/h
Temperature: 79°F , 26°C
Dew Point: 64°F , 18°C
Humidity: 61%
Barometer: 29.97 inHg , 1014.9 hPa
Clouds: Mostly cloudy
Visibility: 10 miles , 16 km
Cloud details: Mostly cloudy 2800 ft
Mostly cloudy 3300 ft
2017/09/19 16:35 KPTB 191635Z AUTO 33008KT 300V360 10SM BKN028 BKN033 26/18 A2997 RMK AO2 T02560178
 
KFVX - Farmville, Virginia, USA
Distance from station: SSW 115mi, 185km
Updated: Tue, 19-Sep-2017 12:35pm EDT
Clear
Clear
 Wind from N
Wind: N 6 mph , 9 km/h
Temperature: 82°F , 28°C
Heat Index: 85°F , 29°C
Dew Point: 68°F , 20°C
Humidity: 62%
Barometer: 29.98 inHg , 1015.2 hPa
Clouds: Clear
Visibility: 10 miles , 16 km
2017/09/19 16:35 KFVX 191635Z AUTO 35005KT 10SM CLR 28/20 A2998 RMK AO2 T02770202
KJGG - Williamsburg, Virginia, USA
Distance from station: SSE 116mi, 187km
Updated: Tue, 19-Sep-2017 12:35pm EDT
Clear
Clear
 Wind from NNW
Wind: NNW 14 mph , 22 km/h, Gust: 18 mph , 30 km/h
Temperature: 79°F , 26°C
Dew Point: 70°F , 21°C
Humidity: 74%
Barometer: 29.92 inHg , 1013.2 hPa
Clouds: Clear
Visibility: 10 miles , 16 km
2017/09/19 16:35 KJGG 191635Z AUTO 33012G16KT 10SM CLR 26/21 A2992 RMK AO1
KMFV - Melfa/Accomack, Virginia, USA
Distance from station: SE 121mi, 195km
Updated: Tue, 19-Sep-2017 12:35pm EDT
Overcast
Overcast
 Wind from N
Wind: N 13 mph , 20 km/h, Gust: 22 mph , 35 km/h
Temperature: 73°F , 23°C
Dew Point: 68°F , 20°C
Humidity: 83%
Barometer: 29.85 inHg , 1010.8 hPa
Clouds: Overcast
Visibility: 10 miles , 16 km
Cloud details: Overcast 2700 ft
2017/09/19 16:35 KMFV 191635Z AUTO 36011G19KT 10SM OVC027 23/20 A2985 RMK AO2 T02330198
 
KWAL - Wallops Island, Virginia, USA
Distance from station: ESE 122mi, 197km
Updated: Tue, 19-Sep-2017 11:54am EDT
Light rain, Mist, Overcast
Light rain, Mist, Overcast
 Wind from N
Wind: N 16 mph , 26 km/h, Gust: 26 mph , 43 km/h
Temperature: 72°F , 22°C
Dew Point: 70°F , 21°C
Humidity: 94%
Barometer: 29.85 inHg , 1010.8 hPa
Summary: Light rain, Mist
Clouds: Overcast
Visibility: 3 miles , 5 km
Cloud details: Mostly cloudy 2100 ft
Overcast 2800 ft
2017/09/19 15:54 KWAL 191554Z AUTO 01014G23KT 3SM -RA BR BKN021 OVC028 22/21 A2985 RMK AO2 RAB29 SLP103 P0001 T02170211
KBKT - BLACKSTONE/FORT, VIRGINIA, USA
Distance from station: SSW 124mi, 200km
Updated: Tue, 19-Sep-2017 12:35pm EDT
Partly cloudy
Partly cloudy
 Wind from NNW
Wind: NNW 7 mph , 11 km/h, Gust: 16 mph , 26 km/h
Temperature: 77°F , 25°C
Dew Point: 70°F , 21°C
Humidity: 79%
Barometer: 29.98 inHg , 1015.2 hPa
Clouds: Partly cloudy
Visibility: 10 miles , 16 km
Cloud details: Partly cloudy 2300 ft
2017/09/19 16:35 KBKT 191635Z AUTO 33006G14KT 10SM SCT023 25/21 A2998 RMK AO1 T02530205
KFAF - Ft Eustis/Felker, Virginia, USA
Distance from station: SSE 125mi, 202km
Updated: Tue, 19-Sep-2017 11:58am EDT
Mostly cloudy
Mostly cloudy
 Wind from NNW
Wind: NNW 15 mph , 24 km/h, Gust: 20 mph , 31 km/h
Temperature: 77°F , 25°C
Dew Point: 68°F , 20°C
Humidity: 74%
Barometer: 29.89 inHg , 1012.2 hPa
Clouds: Mostly cloudy
Visibility: 10 miles , 16 km
Cloud details: Partly cloudy 2300 ft
Partly cloudy 3000 ft
Mostly cloudy 3500 ft
2017/09/19 15:58 KFAF 191558Z AUTO 33013G17KT 10SM SCT023 SCT030 BKN035 25/20 A2989 RMK AO2 SLP125 T02530199 $
 
KAKQ - Norfolk/Wakefld, Virginia, USA
Distance from station: S 129mi, 207km
Updated: Tue, 19-Sep-2017 11:54am EDT
Mostly cloudy
Mostly cloudy
 Wind from NNW
Wind: NNW 8 mph , 13 km/h, Gust: 18 mph , 30 km/h
Temperature: 77°F , 25°C
Dew Point: 66°F , 19°C
Humidity: 69%
Barometer: 29.94 inHg , 1013.9 hPa
Clouds: Mostly cloudy
Visibility: 10 miles , 16 km
Cloud details: Few Clouds 2600 ft
Mostly cloudy 3900 ft
2017/09/19 15:54 KAKQ 191554Z AUTO 34007G16KT 300V020 10SM FEW026 BKN039 25/19 A2994 RMK AO2 SLP139 T02500194
KLFI - Langley Afb/Hamp, Virginia, USA
Distance from station: SSE 134mi, 216km
Updated: Tue, 19-Sep-2017 11:58am EDT
Light rain, Overcast
Light rain, Overcast
 Wind from N
Wind: N 9 mph , 15 km/h
Temperature: 73°F , 23°C
Dew Point: 70°F , 21°C
Humidity: 89%
Barometer: 29.89 inHg , 1012.2 hPa
Summary: Light rain
Clouds: Overcast
Visibility: 9 miles , 14 km
Cloud details: Overcast 2600 ft
2017/09/19 15:58 KLFI 191558Z 35008KT 9SM -RA OVC026 23/21 A2989 RMK AO2A SLP128 P0001 T02280206 $
KLVL - LAWRENCEVILLE, VIRGINIA, USA
Distance from station: SSW 142mi, 229km
Updated: Tue, 19-Sep-2017 12:35pm EDT
Partly cloudy
Partly cloudy
 Wind from NNW
Wind: NNW 9 mph , 15 km/h
Temperature: 77°F , 25°C
Dew Point: 66°F , 19°C
Humidity: 69%
Barometer: 29.97 inHg , 1014.9 hPa
Clouds: Partly cloudy
Visibility: 10 miles , 16 km
Cloud details: Partly cloudy 2400 ft
2017/09/19 16:35 KLVL 191635Z AUTO 34008KT 10SM SCT024 25/19 A2997 RMK AO1 T02450188
 
KHSP - Hot Springs/Inga, Virginia, USA
Distance from station: WSW 143mi, 230km
Updated: Tue, 19-Sep-2017 12:35pm EDT
Mostly cloudy
Mostly cloudy
 Wind from WSW
Wind: WSW 5 mph , 7 km/h
Temperature: 66°F , 19°C
Dew Point: 61°F , 16°C
Humidity: 83%
Barometer: 30.15 inHg , 1021 hPa
Clouds: Mostly cloudy
Visibility: 10 miles , 16 km
Cloud details: Mostly cloudy 800 ft
2017/09/19 16:35 KHSP 191635Z AUTO 25004KT 10SM BKN008 19/16 A3015 RMK AO2 T01880157
KNGU - Norfolk Nas/Cham, Virginia, USA
Distance from station: SSE 146mi, 234km
Updated: Tue, 19-Sep-2017 11:59am EDT
Overcast
Overcast
 Wind from NW
Wind: NW 17 mph , 28 km/h, Gust: 28 mph , 44 km/h
Temperature: 73°F , 23°C
Dew Point: 70°F , 21°C
Humidity: 89%
Barometer: 29.89 inHg , 1012.2 hPa
Clouds: Overcast
Visibility: 8 miles , 13 km
Cloud details: Partly cloudy 1700 ft
Mostly cloudy 2900 ft
Overcast 5000 ft
2017/09/19 15:59 KNGU 191559Z 32015G24KT 8SM SCT017 BKN029 OVC050 23/21 A2989 RMK AO2 PK WND 34027/1533 RAE21B47E58 SLP123 P0000 T02330206
KEMV - Emporia, Virginia, USA
Distance from station: S 148mi, 237km
Updated: Tue, 19-Sep-2017 12:35pm EDT
Mostly cloudy
Mostly cloudy
 Wind from WNW
Wind: WNW 8 mph , 13 km/h
Temperature: 77°F , 25°C
Dew Point: 66°F , 19°C
Humidity: 69%
Barometer: 29.96 inHg , 1014.6 hPa
Clouds: Mostly cloudy
Visibility: 10 miles , 16 km
Cloud details: Mostly cloudy 2800 ft
Mostly cloudy 3400 ft
2017/09/19 16:35 KEMV 191635Z AUTO 30007KT 10SM BKN028 BKN034 25/19 A2996 RMK AO2
 
KORF - Norfolk, Virginia, USA
Distance from station: SSE 148mi, 239km
Updated: Tue, 19-Sep-2017 12:51pm EDT
Light rain, Overcast
Light rain, Overcast
 Wind from NNW
Wind: NNW 13 mph , 20 km/h, Gust: 24 mph , 39 km/h
Temperature: 75°F , 24°C
Dew Point: 70°F , 21°C
Humidity: 83%
Barometer: 29.87 inHg , 1011.5 hPa
Summary: Light rain
Clouds: Overcast
Visibility: 8 miles , 13 km
Cloud details: Few Clouds 2100 ft
Mostly cloudy 2700 ft
Overcast 5000 ft
2017/09/19 16:51 KORF 191651Z 34011G21KT 8SM -RA FEW021 BKN027 OVC050 24/21 A2987 RMK AO2 RAE1555B48 SLP114 P0000 T02390206
KFKN - Franklin/J B Ros, Virginia, USA
Distance from station: SSE 149mi, 240km
Updated: Tue, 19-Sep-2017 12:35pm EDT
Mostly cloudy
Mostly cloudy
 Wind from NNW
Wind: NNW 10 mph , 17 km/h, Gust: 22 mph , 35 km/h
Temperature: 77°F , 25°C
Dew Point: 66°F , 19°C
Humidity: 69%
Barometer: 29.92 inHg , 1013.2 hPa
Clouds: Mostly cloudy
Visibility: 10 miles , 16 km
Cloud details: Mostly cloudy 2800 ft
Mostly cloudy 3700 ft
Mostly cloudy 9000 ft
2017/09/19 16:35 KFKN 191635Z AUTO 34009G19KT 10SM BKN028 BKN037 BKN090 25/19 A2992 RMK AO2 T02540188
KPVG - Norfolk/Hampton, Virginia, USA
Distance from station: SSE 150mi, 242km
Updated: Tue, 19-Sep-2017 12:24pm EDT
Light rain, Overcast
Light rain, Overcast
 Wind from varies
Wind: varies 3 mph , 6 km/h
Temperature: 72°F , 22°C
Dew Point: 70°F , 21°C
Humidity: 94%
Barometer: 29.89 inHg , 1012.2 hPa
Summary: Light rain
Clouds: Overcast
Visibility: 7 miles , 11 km
Cloud details: Mostly cloudy 2300 ft
Mostly cloudy 3300 ft
Overcast 4200 ft
2017/09/19 16:24 KPVG 191624Z AUTO VRB03KT 7SM -RA BKN023 BKN033 OVC042 22/21 A2989 RMK AO2 P0000
 
KAVC - South Hill/Meckl, Virginia, USA
Distance from station: SSW 151mi, 243km
Updated: Tue, 19-Sep-2017 12:35pm EDT
Partly cloudy
Partly cloudy
 Wind from NW
Wind: NW 6 mph , 9 km/h
Temperature: 75°F , 24°C
Dew Point: 68°F , 20°C
Humidity: 78%
Barometer: 30.04 inHg , 1017.3 hPa
Clouds: Partly cloudy
Visibility: 10 miles , 16 km
Cloud details: Partly cloudy 2300 ft
2017/09/19 16:35 KAVC 191635Z AUTO 31005KT 10SM SCT023 24/20 A3004 RMK AO2 T02420198
KCXE - CHASE CITY, VIRGINIA, USA
Distance from station: SW 152mi, 245km
Updated: Tue, 19-Sep-2017 12:35pm EDT
Partly cloudy
Partly cloudy
 Wind from N
Wind: N 7 mph , 11 km/h
Temperature: 79°F , 26°C
Dew Point: 68°F , 20°C
Humidity: 70%
Barometer: 29.99 inHg , 1015.6 hPa
Clouds: Partly cloudy
Visibility: 10 miles , 16 km
Cloud details: Partly cloudy 2900 ft
2017/09/19 16:35 KCXE 191635Z AUTO 35006KT 10SM SCT029 26/20 A2999 RMK AO1 T02590195
KSFQ - Suffolk, Virginia, USA
Distance from station: SSE 154mi, 248km
Updated: Tue, 19-Sep-2017 12:35pm EDT
Overcast
Overcast
 Wind from NW
Wind: NW 10 mph , 17 km/h, Gust: 20 mph , 31 km/h
Temperature: 77°F , 25°C
Dew Point: 68°F , 20°C
Humidity: 74%
Barometer: 29.90 inHg , 1012.5 hPa
Clouds: Overcast
Visibility: 10 miles , 16 km
Cloud details: Partly cloudy 2700 ft
Mostly cloudy 3700 ft
Overcast 8500 ft
2017/09/19 16:35 KSFQ 191635Z AUTO 32009G17KT 290V350 10SM SCT027 BKN037 OVC085 25/20 A2990 RMK AO2 P0001 T02450201
 
KNTU - Oceana Nas/Souce, Virginia, USA
Distance from station: SSE 158mi, 254km
Updated: Tue, 19-Sep-2017 11:56am EDT
Overcast
Overcast
 Wind from NNW
Wind: NNW 21 mph , 33 km/h, Gust: 31 mph , 50 km/h
Temperature: 72°F , 22°C
Dew Point: 66°F , 19°C
Humidity: 83%
Barometer: 29.85 inHg , 1010.8 hPa
Clouds: Overcast
Visibility: 10 miles , 16 km
Cloud details: Mostly cloudy 1100 ft
Overcast 2500 ft
2017/09/19 15:56 KNTU 191556Z 34018G27KT 10SM BKN011 OVC025 22/19 A2985 RMK AO2 PK WND 34028/1526 SLP109 T02220194
KCPK - Chesapeake, Virginia, USA
Distance from station: SSE 160mi, 258km
Updated: Tue, 19-Sep-2017 12:35pm EDT
Light rain, Overcast
Light rain, Overcast
 Wind from NW
Wind: NW 9 mph , 15 km/h, Gust: 20 mph , 31 km/h
Temperature: 73°F , 23°C
Dew Point: 68°F , 20°C
Humidity: 83%
Barometer: 29.88 inHg , 1011.9 hPa
Summary: Light rain
Clouds: Overcast
Visibility: 7 miles , 11 km
Cloud details: Partly cloudy 2600 ft
Partly cloudy 3200 ft
Overcast 6000 ft
2017/09/19 16:35 KCPK 191635Z AUTO 32008G17KT 7SM -RA SCT026 SCT032 OVC060 23/20 A2988 RMK AO2 T02270203
KNFE - Fentress Naval, Virginia, USA
Distance from station: SSE 162mi, 261km
Updated: Tue, 19-Sep-2017 12:12pm EDT
Overcast
Overcast
 Wind from NNW
Wind: NNW 10 mph , 17 km/h, Gust: 17 mph , 28 km/h
Temperature: 75°F , 24°C
Dew Point: 68°F , 20°C
Humidity: 78%
Barometer: 29.86 inHg , 1011.2 hPa
Clouds: Overcast
Visibility: 10 miles , 16 km
Cloud details: Mostly cloudy 2900 ft
Overcast 3400 ft
2017/09/19 16:12 KNFE 191612Z AUTO 33009G15KT 10SM BKN029 OVC034 24/20 A2986 RMK AO2 T02390200
 
KROA - ROANOKE, VIRGINIA, USA
Distance from station: SW 173mi, 279km
Updated: Tue, 19-Sep-2017 11:54am EDT
Partly cloudy
Partly cloudy
 Wind from NNE
Wind: NNE 5 mph , 7 km/h
Temperature: 73°F , 23°C
Dew Point: 64°F , 18°C
Humidity: 74%
Barometer: 30.08 inHg , 1018.6 hPa
Clouds: Partly cloudy
Visibility: 10 miles , 16 km
Cloud details: Partly cloudy 3100 ft
2017/09/19 15:54 KROA 191554Z 03004KT 10SM SCT031 23/18 A3008 RMK AO2 SLP176 T02330183
KDAN - DANVILLE, VIRGINIA, USA
Distance from station: SW 187mi, 302km
Updated: Tue, 19-Sep-2017 12:53pm EDT
Mostly cloudy
Mostly cloudy
 Wind from NNW
Wind: NNW 9 mph , 15 km/h
Temperature: 77°F , 25°C
Dew Point: 66°F , 19°C
Humidity: 69%
Barometer: 30.02 inHg , 1016.6 hPa
Clouds: Mostly cloudy
Visibility: 10 miles , 16 km
Cloud details: Mostly cloudy 3000 ft
2017/09/19 16:53 KDAN 191653Z AUTO 34008KT 10SM BKN030 25/19 A3002 RMK AO2 SLP156 T02500189
KMTV - MARTINSVILLE, VIRGINIA, USA
Distance from station: SW 207mi, 333km
Updated: Tue, 19-Sep-2017 12:35pm EDT
Mostly cloudy
Mostly cloudy
 Wind from NNE
Wind: NNE 3 mph , 6 km/h
Temperature: 79°F , 26°C
Dew Point: 64°F , 18°C
Humidity: 61%
Barometer: 30.07 inHg , 1018.3 hPa
Clouds: Mostly cloudy
Visibility: 10 miles , 16 km
Cloud details: Mostly cloudy 2700 ft
2017/09/19 16:35 KMTV 191635Z AUTO 02003KT 10SM BKN027 26/18 A3007 RMK AO2 T02580177
 
KPSK - DUBLIN/NEW RIV, VIRGINIA, USA
Distance from station: SW 212mi, 342km
Updated: Tue, 19-Sep-2017 12:35pm EDT
Clear
Clear
 Wind from calm
Wind: Calm
Temperature: 77°F , 25°C
Dew Point: 64°F , 18°C
Humidity: 65%
Barometer: 30.10 inHg , 1019.3 hPa
Clouds: Clear
Visibility: 10 miles , 16 km
2017/09/19 16:35 KPSK 191635Z AUTO 00000KT 10SM CLR 25/18 A3010 RMK AO2 T02470184
KHLX - HILLSVILLE/GALAX, VIRGINIA, USA
Distance from station: SW 233mi, 376km
Updated: Tue, 19-Sep-2017 12:35pm EDT
Clear
Clear
 Wind from calm
Wind: Calm
Temperature: 73°F , 23°C
Dew Point: 55°F , 13°C
Humidity: 53%
Barometer: 30.10 inHg , 1019.3 hPa
Clouds: Clear
Visibility: 10 miles , 16 km
2017/09/19 16:35 KHLX 191635Z AUTO 00000KT 10SM CLR 23/13 A3010 RMK AO2 T02250131
KMKJ - MARION / WYTHEVI, VIRGINIA, USA
Distance from station: SW 252mi, 405km
Updated: Tue, 19-Sep-2017 12:35pm EDT
Partly cloudy
Partly cloudy
 Wind from SSW
Wind: SSW 6 mph , 9 km/h
Temperature: 79°F , 26°C
Dew Point: 57°F , 14°C
Humidity: 48%
Barometer: 30.12 inHg , 1020 hPa
Clouds: Partly cloudy
Visibility: 10 miles , 16 km
Cloud details: Partly cloudy 8500 ft
2017/09/19 16:35 KMKJ 191635Z AUTO 20005KT 10SM SCT085 26/14 A3012 RMK AO2 T02550143
 
KJFZ - RICHLANDS, VIRGINIA, USA
Distance from station: SW 268mi, 431km
Updated: Tue, 19-Sep-2017 12:35pm EDT
Mostly cloudy
Mostly cloudy
 Wind from W
Wind: W 9 mph , 15 km/h
Temperature: 77°F , 25°C
Dew Point: 59°F , 15°C
Humidity: 54%
Barometer: 30.11 inHg , 1019.6 hPa
Clouds: Mostly cloudy
Visibility: 10 miles , 16 km
Cloud details: Partly cloudy 3500 ft
Mostly cloudy 9000 ft
2017/09/19 16:35 KJFZ 191635Z AUTO 28008KT 10SM SCT035 BKN090 25/15 A3011 RMK AO2 T02490145
KVJI - ABINGDON, VIRGINIA, USA
Distance from station: SW 292mi, 470km
Updated: Tue, 19-Sep-2017 12:35pm EDT
Partly cloudy
Partly cloudy
 Wind from W
Wind: W 8 mph , 13 km/h
Temperature: 79°F , 26°C
Dew Point: 61°F , 16°C
Humidity: 54%
Barometer: 30.09 inHg , 1019 hPa
Clouds: Partly cloudy
Visibility: 10 miles , 16 km
Cloud details: Partly cloudy 3800 ft
2017/09/19 16:35 KVJI 191635Z AUTO 28007KT 260V340 10SM SCT038 26/16 A3009 RMK AO2 T02620157
KLNP - WISE/LONESOME PI, VIRGINIA, USA
Distance from station: WSW 306mi, 492km
Updated: Tue, 19-Sep-2017 12:35pm EDT
Mostly cloudy
Mostly cloudy
 Wind from WSW
Wind: WSW 7 mph , 11 km/h
Temperature: 77°F , 25°C
Dew Point: 59°F , 15°C
Humidity: 54%
Barometer: 30.13 inHg , 1020.3 hPa
Clouds: Mostly cloudy
Visibility: 10 miles , 16 km
Cloud details: Mostly cloudy 8000 ft
2017/09/19 16:35 KLNP 191635Z AUTO 24006KT 10SM BKN080 25/15 A3013 RMK AO2